Time;durP1;ratioP1;P1;durP2;ratioP2;P2;SDS_P1;SDS_P2;PMS_P1;PMS_P2;Temp;Humidity;BMP_temperature;BMP_pressure;BME280_temperature;BME280_humidity;BME280_pressure;Samples;Min_cycle;Max_cycle;Signal;HPM_P1;HPM_P2
2023/06/27 00:01:14;;;;;;;14.32;2.58;;;;;;;19.45;100.00;100643.72;5020755;28;20037;-72
2023/06/27 00:03:39;;;;;;;10.00;1.98;;;;;;;19.40;100.00;100632.75;5036710;28;20086;-73
2023/06/27 00:06:05;;;;;;;14.45;1.88;;;;;;;19.37;100.00;100642.31;5020369;28;20021;-73
2023/06/27 00:08:34;;;;;;;5.82;1.67;;;;;;;19.39;100.00;100645.56;5020714;28;20510;-72
2023/06/27 00:11:00;;;;;;;12.35;2.72;;;;;;;19.42;100.00;100633.31;5020057;28;20026;-72
2023/06/27 00:13:26;;;;;;;15.32;2.50;;;;;;;19.24;100.00;100605.38;5020656;28;20087;-72
2023/06/27 00:15:54;;;;;;;12.32;2.75;;;;;;;19.41;100.00;100626.22;5037576;28;20108;-73
2023/06/27 00:18:21;;;;;;;14.85;3.03;;;;;;;19.37;100.00;100620.47;5037878;28;20087;-72
2023/06/27 00:20:50;;;;;;;13.25;2.75;;;;;;;19.27;100.00;100617.69;5021178;28;20032;-71
2023/06/27 00:23:21;;;;;;;13.82;2.72;;;;;;;19.10;100.00;100601.44;5040050;28;20060;-72
2023/06/27 00:25:47;;;;;;;16.45;2.85;;;;;;;19.24;100.00;100619.00;5072784;28;20036;-72
2023/06/27 00:28:12;;;;;;;16.63;2.97;;;;;;;19.23;100.00;100614.63;5072916;28;20483;-72
2023/06/27 00:30:38;;;;;;;14.25;3.30;;;;;;;19.10;100.00;100603.34;5039743;28;20044;-72
2023/06/27 00:33:04;;;;;;;20.27;3.45;;;;;;;19.14;100.00;100608.03;5073237;28;20037;-72
2023/06/27 00:35:32;;;;;;;19.55;3.20;;;;;;;18.91;100.00;100584.66;5023140;28;20032;-72
2023/06/27 00:37:59;;;;;;;17.60;3.53;;;;;;;19.06;100.00;100610.41;5057569;28;20036;-72
2023/06/27 00:40:25;;;;;;;17.02;2.85;;;;;;;19.15;100.00;100612.38;5070961;28;20538;-73
2023/06/27 00:42:51;;;;;;;19.75;3.47;;;;;;;19.20;100.00;100619.78;5054314;28;20037;-73
2023/06/27 00:45:16;;;;;;;18.05;3.20;;;;;;;19.18;100.00;100620.06;5056188;28;20028;-72
2023/06/27 00:47:42;;;;;;;24.83;3.03;;;;;;;19.17;100.00;100617.56;5056080;28;20047;-72
2023/06/27 00:50:07;;;;;;;16.90;3.08;;;;;;;19.17;100.00;100618.41;5057216;28;20029;-73
2023/06/27 00:52:33;;;;;;;14.93;3.28;;;;;;;19.16;100.00;100618.66;5038793;28;20028;-73
2023/06/27 00:55:00;;;;;;;22.48;3.60;;;;;;;19.10;100.00;100617.78;5053840;28;20033;-73
2023/06/27 00:57:25;;;;;;;18.95;2.90;;;;;;;19.06;100.00;100605.75;5036341;28;20082;-73
2023/06/27 00:59:52;;;;;;;23.88;3.45;;;;;;;19.06;100.00;100604.94;5056976;28;20093;-73
2023/06/27 01:02:23;;;;;;;21.33;3.65;;;;;;;19.15;100.00;100600.66;5055346;28;20044;-73
2023/06/27 01:04:53;;;;;;;18.13;3.25;;;;;;;19.15;100.00;100597.94;5057491;28;20491;-72
2023/06/27 01:07:41;;;;;;;13.93;2.95;;;;;;;19.07;100.00;100587.50;5057062;28;20375;-72
2023/06/27 01:10:32;;;;;;;18.00;3.40;;;;;;;18.96;100.00;100586.59;5056685;28;20075;-72
2023/06/27 01:13:03;;;;;;;16.63;3.40;;;;;;;19.03;100.00;100595.38;5056135;28;20134;-73
2023/06/27 01:15:29;;;;;;;20.00;3.88;;;;;;;18.94;100.00;100586.88;5037496;28;20025;-73
2023/06/27 01:17:57;;;;;;;17.58;3.13;;;;;;;18.82;100.00;100578.03;5056872;28;20063;-73
2023/06/27 01:20:23;;;;;;;13.73;3.08;;;;;;;18.97;100.00;100593.69;5038384;28;20403;-73
2023/06/27 01:23:02;;;;;;;22.30;3.83;;;;;;;19.01;100.00;100598.38;5073466;28;20082;-72
2023/06/27 01:25:30;;;;;;;19.45;3.50;;;;;;;18.97;100.00;100571.88;5038385;28;20037;-73
2023/06/27 01:27:55;;;;;;;22.75;4.00;;;;;;;19.12;100.00;100596.53;5056439;28;20029;-72
2023/06/27 01:30:20;;;;;;;15.50;3.28;;;;;;;19.12;100.00;100585.63;5037842;28;20037;-72
2023/06/27 01:32:52;;;;;;;20.67;3.20;;;;;;;19.05;100.00;100590.50;5054503;28;20120;-73
2023/06/27 01:35:39;;;;;;;18.20;4.00;;;;;;;19.15;100.00;100587.84;5053637;28;20020;-72
2023/06/27 01:38:10;;;;;;;17.25;3.47;;;;;;;19.10;100.00;100574.16;5054343;28;20289;-72
2023/06/27 01:40:39;;;;;;;19.65;3.67;;;;;;;18.94;100.00;100547.84;5054587;28;20021;-73
2023/06/27 01:43:10;;;;;;;18.10;2.92;;;;;;;19.07;100.00;100577.41;5055959;28;20057;-73
2023/06/27 01:45:38;;;;;;;14.18;3.05;;;;;;;19.10;100.00;100576.88;5037761;28;20021;-73
2023/06/27 01:48:05;;;;;;;20.75;3.58;;;;;;;19.01;100.00;100570.28;5056346;28;20036;-73
2023/06/27 01:50:30;;;;;;;18.75;3.25;;;;;;;19.09;100.00;100583.44;5071631;28;20441;-73
2023/06/27 01:52:56;;;;;;;17.05;3.38;;;;;;;19.14;100.00;100582.63;5038493;28;20108;-72
2023/06/27 01:55:21;;;;;;;18.75;3.97;;;;;;;19.13;100.00;100568.19;5038657;28;20036;-72
2023/06/27 01:57:49;;;;;;;18.15;3.00;;;;;;;19.13;100.00;100578.28;5034455;28;20391;-73
2023/06/27 02:00:15;;;;;;;20.63;3.45;;;;;;;19.18;100.00;100567.41;5054773;28;20025;-73
2023/06/27 02:02:40;;;;;;;20.27;3.50;;;;;;;19.21;100.00;100566.88;5055111;28;20041;-72
2023/06/27 02:05:07;;;;;;;12.93;3.20;;;;;;;19.10;100.00;100555.06;5070146;28;20076;-72
2023/06/27 02:07:33;;;;;;;20.15;3.60;;;;;;;19.17;100.00;100561.13;5037905;28;20119;-73
2023/06/27 02:09:58;;;;;;;21.05;3.45;;;;;;;19.17;100.00;100561.13;5038009;28;20092;-73
2023/06/27 02:12:24;;;;;;;19.98;3.92;;;;;;;19.22;100.00;100552.97;5038030;28;20047;-73
2023/06/27 02:14:49;;;;;;;22.60;3.58;;;;;;;19.10;100.00;100535.97;5070644;28;20564;-73
2023/06/27 02:17:15;;;;;;;19.27;3.50;;;;;;;19.05;100.00;100529.69;5071335;28;20280;-72
2023/06/27 02:19:40;;;;;;;14.25;2.85;;;;;;;18.96;100.00;100505.63;5037922;28;20033;-72
2023/06/27 02:22:05;;;;;;;20.63;3.40;;;;;;;19.24;100.00;100547.28;5071785;28;20423;-73
2023/06/27 02:24:31;;;;;;;19.45;3.33;;;;;;;19.21;100.00;100545.06;5038188;28;20040;-73
2023/06/27 02:26:56;;;;;;;14.25;2.58;;;;;;;19.16;100.00;100532.19;5057460;28;20021;-73
2023/06/27 02:29:22;;;;;;;16.20;2.90;;;;;;;19.12;100.00;100533.81;5059974;28;20055;-73
2023/06/27 02:31:47;;;;;;;15.43;3.50;;;;;;;19.22;100.00;100539.34;5075547;28;20029;-73
2023/06/27 02:34:13;;;;;;;16.55;3.60;;;;;;;19.22;100.00;100536.59;5058866;28;20029;-73
2023/06/27 02:36:38;;;;;;;17.95;3.53;;;;;;;19.18;100.00;100521.84;5058662;28;20033;-73
2023/06/27 02:39:04;;;;;;;17.83;3.15;;;;;;;19.20;100.00;100529.75;5058680;28;20029;-73
2023/06/27 02:41:29;;;;;;;16.38;3.70;;;;;;;19.16;100.00;100526.75;5041639;28;20025;-72
2023/06/27 02:43:54;;;;;;;18.15;3.10;;;;;;;19.10;100.00;100516.88;5024699;28;20053;-72
2023/06/27 02:46:20;;;;;;;17.90;3.15;;;;;;;19.24;100.00;100523.53;5059594;28;20479;-73
2023/06/27 02:48:45;;;;;;;18.65;3.75;;;;;;;19.24;100.00;100520.81;5059378;28;20036;-73
2023/06/27 02:51:11;;;;;;;16.83;2.60;;;;;;;19.21;100.00;100507.69;5042078;28;20064;-73
2023/06/27 02:53:37;;;;;;;22.17;3.83;;;;;;;19.12;100.00;100498.34;5058099;28;20352;-73
2023/06/27 02:56:07;;;;;;;22.23;3.53;;;;;;;19.25;100.00;100508.81;5074444;28;20036;-72
2023/06/27 02:58:33;;;;;;;18.38;2.75;;;;;;;18.81;100.00;100458.34;5070299;28;20032;-73
2023/06/27 03:00:59;;;;;;;15.93;3.22;;;;;;;18.93;100.00;100475.31;5057325;28;20025;-73
2023/06/27 03:03:25;;;;;;;19.45;3.38;;;;;;;18.97;100.00;100493.66;5074253;28;20025;-73
2023/06/27 03:05:50;;;;;;;20.13;3.70;;;;;;;19.00;100.00;100490.38;5041422;28;20021;-73
2023/06/27 03:08:16;;;;;;;16.20;2.92;;;;;;;19.07;100.00;100500.22;5041063;28;20547;-72
2023/06/27 03:10:42;;;;;;;20.77;3.10;;;;;;;19.02;100.00;100493.66;5057185;28;20414;-72
2023/06/27 03:13:07;;;;;;;15.18;3.33;;;;;;;19.06;100.00;100496.69;5041228;28;20029;-72
2023/06/27 03:15:33;;;;;;;22.85;3.45;;;;;;;19.15;100.00;100500.56;5057602;28;20021;-72
2023/06/27 03:17:58;;;;;;;19.30;3.45;;;;;;;19.15;100.00;100497.03;5022864;28;20025;-73
2023/06/27 03:20:24;;;;;;;14.27;2.90;;;;;;;19.12;100.00;100490.19;5057960;28;20029;-73
2023/06/27 03:22:49;;;;;;;17.33;3.30;;;;;;;19.16;100.00;100488.56;5069270;28;20028;-73
2023/06/27 03:25:15;;;;;;;21.48;3.22;;;;;;;19.20;100.00;100489.69;5060892;28;20029;-73
2023/06/27 03:27:40;;;;;;;19.40;3.67;;;;;;;19.19;100.00;100484.50;5054240;28;20060;-72
2023/06/27 03:30:07;;;;;;;13.18;2.65;;;;;;;19.01;100.00;100451.13;5068450;28;20025;-72
2023/06/27 03:32:33;;;;;;;18.17;2.90;;;;;;;19.27;100.00;100475.81;5051773;28;20017;-72
2023/06/27 03:34:59;;;;;;;16.63;2.85;;;;;;;19.32;100.00;100470.38;5042576;28;20021;-72
2023/06/27 03:37:25;;;;;;;19.42;2.90;;;;;;;19.25;100.00;100475.25;5061198;28;20032;-72
2023/06/27 03:39:51;;;;;;;13.27;2.53;;;;;;;19.26;100.00;100465.97;5040513;28;20021;-72
2023/06/27 03:42:16;;;;;;;17.27;2.95;;;;;;;19.33;100.00;100463.00;5057655;28;20065;-72
2023/06/27 03:44:42;;;;;;;14.35;2.42;;;;;;;19.36;100.00;100462.47;5057138;28;21105;-72
2023/06/27 03:47:08;;;;;;;19.05;3.85;;;;;;;19.43;100.00;100466.59;5056741;28;20035;-73
2023/06/27 03:49:33;;;;;;;16.30;3.17;;;;;;;19.45;100.00;100463.63;5057557;28;20039;-72
2023/06/27 03:51:59;;;;;;;17.25;3.10;;;;;;;19.48;100.00;100465.81;5056460;28;20072;-72
2023/06/27 03:54:25;;;;;;;16.10;2.90;;;;;;;19.44;100.00;100467.44;5057273;28;20039;-73
2023/06/27 03:56:50;;;;;;;17.05;3.45;;;;;;;19.47;100.00;100462.28;5038633;28;20078;-73
2023/06/27 03:59:16;;;;;;;10.73;2.45;;;;;;;19.36;100.00;100460.56;5055674;28;20036;-72
2023/06/27 04:01:41;;;;;;;10.93;2.25;;;;;;;19.34;100.00;100453.75;5041478;28;20037;-74
2023/06/27 04:04:08;;;;;;;21.20;3.17;;;;;;;19.40;100.00;100452.66;5056412;28;20025;-75
2023/06/27 04:06:34;;;;;;;14.75;2.65;;;;;;;19.38;100.00;100463.03;5041692;28;20025;-72
2023/06/27 04:09:02;;;;;;;10.63;2.63;;;;;;;19.46;100.00;100462.53;5039555;28;20036;-73
2023/06/27 04:11:28;;;;;;;13.32;2.70;;;;;;;19.53;100.00;100475.91;5022102;28;20044;-77
2023/06/27 04:13:54;;;;;;;13.13;2.60;;;;;;;19.46;100.00;100467.97;5039863;28;20044;-73
2023/06/27 04:16:20;;;;;;;21.42;2.97;;;;;;;19.48;100.00;100454.91;5058367;28;20040;-73
2023/06/27 04:18:46;;;;;;;17.98;2.88;;;;;;;19.44;100.00;100454.63;5040856;28;20360;-75
2023/06/27 04:21:11;;;;;;;14.48;2.75;;;;;;;19.48;100.00;100463.09;5076578;28;20044;-75
2023/06/27 04:23:37;;;;;;;19.55;2.67;;;;;;;19.57;100.00;100472.41;5067775;28;20039;-73
2023/06/27 04:26:04;;;;;;;21.60;3.53;;;;;;;19.59;100.00;100470.22;5052887;28;20419;-76
2023/06/27 04:28:34;;;;;;;15.85;2.80;;;;;;;19.67;100.00;100472.47;5057558;28;20032;-72
2023/06/27 04:31:00;;;;;;;14.57;2.83;;;;;;;19.61;100.00;100476.25;5039374;28;20028;-72
2023/06/27 04:33:29;;;;;;;16.15;2.67;;;;;;;19.56;100.00;100476.22;5073311;28;20029;-71
2023/06/27 04:36:01;;;;;;;14.05;3.15;;;;;;;19.61;100.00;100470.78;5072398;28;20029;-71
2023/06/27 04:38:27;;;;;;;15.23;2.25;;;;;;;19.53;100.00;100465.81;5039176;28;20029;-72
2023/06/27 04:40:52;;;;;;;20.65;3.70;;;;;;;19.59;100.00;100470.22;5055718;28;20047;-72
2023/06/27 04:43:18;;;;;;;16.98;2.85;;;;;;;19.55;100.00;100452.75;5070523;28;20057;-72
2023/06/27 04:45:43;;;;;;;18.25;3.08;;;;;;;19.63;100.00;100462.31;5055982;28;20104;-72
2023/06/27 04:48:09;;;;;;;18.77;3.10;;;;;;;19.46;100.00;100451.59;5054378;28;20033;-73
2023/06/27 04:50:35;;;;;;;13.43;3.00;;;;;;;19.51;100.00;100457.09;5054776;28;20116;-71
2023/06/27 04:53:03;;;;;;;12.20;2.40;;;;;;;19.54;100.00;100462.03;5038968;28;20094;-72
2023/06/27 04:55:28;;;;;;;17.85;2.83;;;;;;;19.47;100.00;100459.53;5056506;28;20025;-72
2023/06/27 04:57:54;;;;;;;10.20;2.33;;;;;;;19.47;100.00;100456.81;5055977;28;20029;-72
2023/06/27 05:00:20;;;;;;;16.58;2.60;;;;;;;19.62;100.00;100461.50;5054654;28;20032;-71
2023/06/27 05:02:45;;;;;;;15.10;2.35;;;;;;;19.55;100.00;100436.38;5052533;28;20072;-71
2023/06/27 05:05:11;;;;;;;14.15;2.38;;;;;;;19.70;100.00;100461.03;5049366;28;20140;-73
2023/06/27 05:07:36;;;;;;;15.05;2.83;;;;;;;19.68;100.00;100457.72;5035650;28;20056;-72
2023/06/27 05:10:02;;;;;;;13.82;2.75;;;;;;;19.75;100.00;100452.00;5053931;28;20033;-72
2023/06/27 05:12:28;;;;;;;16.33;2.95;;;;;;;19.84;100.00;100457.78;5070105;28;20075;-72
2023/06/27 05:14:54;;;;;;;16.23;2.60;;;;;;;19.70;100.00;100432.88;5070440;28;20025;-71
2023/06/27 05:17:19;;;;;;;13.48;2.92;;;;;;;19.83;100.00;100440.56;5036754;28;20036;-72
2023/06/27 05:19:45;;;;;;;15.68;2.50;;;;;;;19.65;100.00;100432.88;5072250;28;20094;-72
2023/06/27 05:22:10;;;;;;;13.93;2.97;;;;;;;19.75;100.00;100441.09;5038891;28;20037;-72
2023/06/27 05:24:35;;;;;;;11.27;2.30;;;;;;;19.79;100.00;100438.66;5020007;28;20082;-73
2023/06/27 05:27:01;;;;;;;16.98;2.63;;;;;;;19.82;100.00;100435.38;5037486;28;20029;-72
2023/06/27 05:29:26;;;;;;;16.45;3.15;;;;;;;19.84;100.00;100453.13;5073607;28;20480;-72
2023/06/27 05:31:52;;;;;;;14.10;2.65;;;;;;;19.89;100.00;100455.88;5062017;28;20021;-71
2023/06/27 05:34:17;;;;;;;10.48;2.35;;;;;;;19.81;100.00;100448.22;5055815;28;20487;-71
2023/06/27 05:36:43;;;;;;;14.90;2.42;;;;;;;20.02;100.00;100456.44;5072611;28;20529;-71
2023/06/27 05:39:08;;;;;;;12.68;2.28;;;;;;;19.97;100.00;100453.69;5056612;28;20028;-71
2023/06/27 05:41:33;;;;;;;12.00;2.10;;;;;;;19.97;100.00;100464.63;5038316;28;20035;-71
2023/06/27 05:43:59;;;;;;;11.05;2.35;;;;;;;20.08;100.00;100464.38;5038706;28;20049;-70
2023/06/27 05:46:24;;;;;;;11.13;2.35;;;;;;;20.18;100.00;100461.66;5072478;28;20025;-70
2023/06/27 05:48:50;;;;;;;12.90;2.53;;;;;;;20.27;100.00;100470.16;5071974;28;20029;-70
2023/06/27 05:51:15;;;;;;;14.55;2.28;;;;;;;20.34;100.00;100469.88;5055382;28;20064;-70
2023/06/27 05:53:41;;;;;;;12.27;2.15;;;;;;;20.49;100.00;100480.81;5038913;28;20538;-70
2023/06/27 05:56:07;;;;;;;10.20;2.20;;;;;;;20.58;100.00;100489.31;5038698;28;20029;-70
2023/06/27 05:58:36;;;;;;;13.70;2.65;;;;;;;20.58;100.00;100492.06;5038219;28;20108;-70
2023/06/27 06:01:01;;;;;;;13.15;2.30;;;;;;;20.60;100.00;100485.22;5041995;28;20040;-70
2023/06/27 06:03:27;;;;;;;12.45;2.45;;;;;;;20.58;99.76;100465.53;5063144;28;20480;-72
2023/06/27 06:05:52;;;;;;;10.32;1.85;;;;;;;20.69;99.46;100480.00;5062914;28;20037;-71
2023/06/27 06:08:19;;;;;;;10.45;1.75;;;;;;;20.87;98.81;100482.19;5062850;28;20044;-71
2023/06/27 06:10:50;;;;;;;11.63;2.25;;;;;;;20.90;98.35;100475.34;5028233;28;20049;-72
2023/06/27 06:13:15;;;;;;;10.02;1.92;;;;;;;21.03;97.68;100480.25;5044740;28;20454;-72
2023/06/27 06:15:41;;;;;;;8.25;1.70;;;;;;;21.06;97.64;100487.09;5061527;28;20033;-71
2023/06/27 06:18:06;;;;;;;10.98;2.20;;;;;;;21.09;97.43;100490.09;5062465;28;20098;-71
2023/06/27 06:20:31;;;;;;;12.02;2.10;;;;;;;21.25;96.87;100498.25;5041427;28;20148;-72
2023/06/27 06:22:59;;;;;;;9.18;1.70;;;;;;;21.20;96.94;100501.03;5042340;28;20037;-72
2023/06/27 06:25:25;;;;;;;14.52;1.95;;;;;;;21.09;96.77;100475.56;5060749;28;20529;-71
2023/06/27 06:27:51;;;;;;;9.68;1.67;;;;;;;20.92;96.72;100464.94;5061271;28;20398;-71
2023/06/27 06:30:16;;;;;;;12.65;2.25;;;;;;;20.98;96.56;100485.72;5061550;28;20032;-70
2023/06/27 06:32:42;;;;;;;8.70;1.67;;;;;;;21.11;96.12;100485.16;5045310;28;20091;-71
2023/06/27 06:35:07;;;;;;;10.85;1.95;;;;;;;21.26;95.68;100489.78;5062266;28;20036;-71
2023/06/27 06:37:33;;;;;;;7.63;1.58;;;;;;;21.46;94.67;100486.19;5064760;28;20148;-71
2023/06/27 06:39:58;;;;;;;10.07;1.77;;;;;;;21.40;94.54;100487.31;5032682;28;20035;-71
2023/06/27 06:42:24;;;;;;;11.68;2.00;;;;;;;21.35;94.21;100484.56;5060411;28;20052;-71
2023/06/27 06:44:50;;;;;;;12.38;2.10;;;;;;;21.20;94.91;100499.09;5078331;28;20057;-71
2023/06/27 06:47:15;;;;;;;12.43;1.95;;;;;;;21.17;94.76;100490.63;5061277;28;20025;-71
2023/06/27 06:49:40;;;;;;;12.27;1.85;;;;;;;21.44;93.54;100502.06;5044631;28;20032;-71
2023/06/27 06:52:06;;;;;;;10.25;2.28;;;;;;;21.42;93.24;100479.63;5045087;28;20039;-71
2023/06/27 06:54:32;;;;;;;15.32;2.58;;;;;;;21.76;92.35;100492.63;5024967;28;20123;-71
2023/06/27 06:56:57;;;;;;;8.55;1.80;;;;;;;21.98;91.54;100487.56;5061708;28;20032;-71
2023/06/27 06:59:23;;;;;;;10.48;1.73;;;;;;;22.01;90.46;100481.53;5044702;28;20039;-71
2023/06/27 07:01:48;;;;;;;10.85;2.08;;;;;;;22.32;89.25;100484.13;5045084;28;20088;-71
2023/06/27 07:04:13;;;;;;;12.40;2.28;;;;;;;22.56;88.25;100486.94;5061835;28;20493;-71
2023/06/27 07:06:39;;;;;;;10.65;1.73;;;;;;;22.67;87.63;100482.19;5062486;28;20027;-71
2023/06/27 07:09:04;;;;;;;7.22;1.65;;;;;;;22.82;86.99;100484.78;5062615;28;20115;-71
2023/06/27 07:11:30;;;;;;;9.20;1.95;;;;;;;22.97;86.75;100481.09;5062107;28;20552;-71
2023/06/27 07:13:55;;;;;;;11.70;2.20;;;;;;;22.93;86.39;100471.81;5052689;28;20033;-71
2023/06/27 07:16:21;;;;;;;7.90;1.45;;;;;;;22.83;85.41;100474.63;5058914;28;20039;-71
2023/06/27 07:18:46;;;;;;;7.50;1.52;;;;;;;22.92;85.14;100479.22;5063108;28;20114;-71
2023/06/27 07:21:12;;;;;;;13.18;2.08;;;;;;;22.99;84.67;100470.66;5064049;28;20028;-71
2023/06/27 07:23:37;;;;;;;9.73;2.17;;;;;;;22.86;84.42;100452.91;5057803;28;20040;-71
2023/06/27 07:26:04;;;;;;;9.38;1.40;;;;;;;22.67;85.01;100465.72;5058647;28;20036;-71
2023/06/27 07:28:29;;;;;;;9.75;1.58;;;;;;;22.73;84.79;100481.03;5039042;28;20031;-71
2023/06/27 07:30:55;;;;;;;10.35;1.85;;;;;;;22.74;84.98;100483.47;5039500;28;20020;-71
2023/06/27 07:33:21;;;;;;;10.45;2.00;;;;;;;22.76;85.69;100488.69;5068374;28;20103;-71
2023/06/27 07:35:46;;;;;;;7.90;1.40;;;;;;;22.85;85.23;100486.97;5069421;28;20036;-71
2023/06/27 07:38:12;;;;;;;8.57;1.90;;;;;;;23.12;83.91;100485.63;5059331;28;20483;-71
2023/06/27 07:40:37;;;;;;;9.82;1.48;;;;;;;23.40;82.77;100481.19;5074311;28;20033;-71
2023/06/27 07:43:03;;;;;;;6.35;1.38;;;;;;;23.46;81.61;100485.50;5058623;28;20057;-71
2023/06/27 07:45:29;;;;;;;6.70;1.50;;;;;;;23.35;80.57;100464.78;5056066;28;20028;-71
2023/06/27 07:47:54;;;;;;;7.65;2.08;;;;;;;23.47;80.54;100489.06;5055782;28;20092;-71
2023/06/27 07:50:20;;;;;;;7.32;1.38;;;;;;;23.54;80.02;100489.53;5073782;28;20470;-71
2023/06/27 07:52:46;;;;;;;9.00;1.50;;;;;;;23.34;80.34;100485.09;5038317;28;20033;-71
2023/06/27 07:55:11;;;;;;;7.55;1.50;;;;;;;23.20;80.66;100480.31;5056717;28;20032;-71
2023/06/27 07:57:36;;;;;;;8.35;1.60;;;;;;;23.26;80.35;100483.00;5055919;28;20052;-72
2023/06/27 08:00:03;;;;;;;6.78;1.65;;;;;;;23.39;80.53;100491.34;5072332;28;20491;-71
2023/06/27 08:02:28;;;;;;;6.15;1.95;;;;;;;23.59;80.05;100473.81;5056419;28;20032;-71
2023/06/27 08:04:54;;;;;;;5.43;1.30;;;;;;;23.52;79.70;100489.03;5061856;28;20021;-71
2023/06/27 08:07:20;;;;;;;6.28;1.25;;;;;;;23.75;79.30;100484.66;5040420;28;20025;-71
2023/06/27 08:09:45;;;;;;;5.07;1.23;;;;;;;23.72;78.80;100491.53;5058135;28;20399;-71
2023/06/27 08:12:11;;;;;;;8.00;1.70;;;;;;;23.56;78.81;100499.13;5056634;28;20254;-71
2023/06/27 08:14:36;;;;;;;4.40;1.27;;;;;;;23.28;79.21;100486.25;5057819;28;20044;-71
2023/06/27 08:17:02;;;;;;;7.10;1.48;;;;;;;23.45;78.39;100486.63;5070761;28;20033;-71
2023/06/27 08:19:27;;;;;;;7.60;1.40;;;;;;;23.27;79.26;100488.19;5058220;28;20391;-71
2023/06/27 08:21:53;;;;;;;5.63;1.58;;;;;;;23.15;80.32;100499.59;5056556;28;20052;-71
2023/06/27 08:24:18;;;;;;;8.95;1.70;;;;;;;23.14;80.39;100502.59;5073006;28;20029;-71
2023/06/27 08:26:45;;;;;;;9.70;1.30;;;;;;;23.13;80.22;100506.47;5040034;28;20063;-71
2023/06/27 08:29:10;;;;;;;8.55;1.50;;;;;;;22.88;81.59;100507.50;5073357;28;20062;-71
2023/06/27 08:31:36;;;;;;;5.93;1.73;;;;;;;23.09;81.09;100499.94;5053189;28;20037;-71
2023/06/27 08:34:01;;;;;;;4.03;1.25;;;;;;;23.19;80.97;100508.06;5058205;28;20131;-70
2023/06/27 08:36:27;;;;;;;6.20;1.40;;;;;;;23.26;80.99;100513.19;5063360;28;20029;-71
2023/06/27 08:38:52;;;;;;;4.88;1.35;;;;;;;23.34;81.00;100507.88;5055134;28;20052;-71
2023/06/27 08:41:18;;;;;;;4.75;1.70;;;;;;;23.17;81.77;100504.78;5057396;28;20032;-71
2023/06/27 08:43:43;;;;;;;7.30;1.60;;;;;;;;;;5056109;28;20557;-71
2023/06/27 08:46:09;;;;;;;3.85;1.52;;;;;;;23.34;80.63;100491.41;5039423;28;20025;-71
2023/06/27 08:48:41;;;;;;;6.88;1.50;;;;;;;23.38;80.84;100500.72;5072979;28;20513;-71
2023/06/27 08:51:08;;;;;;;6.70;1.65;;;;;;;23.50;80.92;100502.22;5057557;28;20025;-70
2023/06/27 08:53:36;;;;;;;3.33;1.80;;;;;;;23.75;80.13;100496.44;5039695;28;20096;-71
2023/06/27 08:56:09;;;;;;;4.53;1.85;;;;;;;24.07;79.10;100498.50;5039108;28;20099;-71
2023/06/27 08:58:51;;;;;;;9.15;1.80;;;;;;;24.56;77.79;100504.63;5056951;28;20403;-71
2023/06/27 09:01:17;;;;;;;5.30;1.65;;;;;;;24.25;77.86;100501.53;5057022;28;20029;-71
2023/06/27 09:03:43;;;;;;;8.13;2.00;;;;;;;24.23;78.69;100476.25;5039056;28;20029;-71
2023/06/27 09:06:08;;;;;;;4.22;1.80;;;;;;;24.21;78.22;100489.50;5039345;28;20043;-71
2023/06/27 09:08:36;;;;;;;9.98;1.98;;;;;;;24.04;79.03;100492.72;5055491;28;20033;-71
2023/06/27 09:11:03;;;;;;;9.93;1.83;;;;;;;24.11;79.79;100502.28;5038439;28;20513;-71
2023/06/27 09:13:30;;;;;;;8.85;1.85;;;;;;;23.85;81.45;100496.31;5072423;28;20064;-71
2023/06/27 09:15:55;;;;;;;5.40;1.77;;;;;;;23.66;81.65;100487.19;5056860;28;20025;-71
2023/06/27 09:18:21;;;;;;;5.63;1.88;;;;;;;23.73;81.55;100495.91;5056434;28;20039;-71
2023/06/27 09:20:47;;;;;;;7.63;2.25;;;;;;;23.47;82.28;100481.63;5056549;28;20028;-71
2023/06/27 09:23:13;;;;;;;7.60;2.05;;;;;;;23.39;82.37;100483.13;5069625;28;20422;-71
2023/06/27 09:25:38;;;;;;;7.03;1.75;;;;;;;23.49;83.12;100500.59;5056752;28;20064;-71
2023/06/27 09:28:17;;;;;;;9.52;2.53;;;;;;;23.42;85.05;100498.19;5064890;28;20061;-71
2023/06/27 09:30:56;;;;;;;8.27;2.38;;;;;;;23.05;88.45;100504.38;5019910;28;20100;-72
2023/06/27 09:33:22;;;;;;;5.78;2.25;;;;;;;22.91;89.03;100491.28;5038953;28;20036;-71
2023/06/27 09:35:47;;;;;;;7.05;2.70;;;;;;;22.81;91.07;100504.28;5039091;28;20025;-71
2023/06/27 09:38:13;;;;;;;6.80;2.47;;;;;;;22.89;91.23;100509.16;5024122;28;20530;-71
2023/06/27 09:40:39;;;;;;;5.13;2.33;;;;;;;22.84;91.30;100479.81;5066773;28;20029;-71
2023/06/27 09:43:07;;;;;;;4.90;2.80;;;;;;;23.06;90.78;100503.25;5047882;28;20061;-70
2023/06/27 09:45:32;;;;;;;6.70;2.60;;;;;;;22.94;90.85;100487.97;5057860;28;20088;-71
2023/06/27 09:47:58;;;;;;;5.60;2.38;;;;;;;22.89;91.12;100496.25;5054721;28;20036;-71
2023/06/27 09:50:32;;;;;;;5.80;2.30;;;;;;;22.82;92.01;100505.94;5037826;28;20032;-71
2023/06/27 09:53:00;;;;;;;7.22;2.55;;;;;;;22.89;91.59;100506.41;5038312;28;20041;-71
2023/06/27 09:55:26;;;;;;;4.55;2.70;;;;;;;22.85;92.03;100495.19;5038347;28;20055;-71
2023/06/27 09:57:52;;;;;;;4.95;2.63;;;;;;;22.77;91.37;100495.81;5040798;28;20029;-71
2023/06/27 10:00:22;;;;;;;4.85;2.67;;;;;;;22.82;91.85;100498.50;5038490;28;20112;-70
2023/06/27 10:02:49;;;;;;;4.97;2.55;;;;;;;22.77;92.39;100514.19;5056581;28;20029;-71
2023/06/27 10:05:15;;;;;;;8.40;3.08;;;;;;;22.60;93.60;100517.34;5038075;28;20122;-71
2023/06/27 10:07:41;;;;;;;5.97;3.08;;;;;;;22.56;93.76;100519.03;5056444;28;20020;-71
2023/06/27 10:10:07;;;;;;;4.75;2.70;;;;;;;22.59;93.56;100513.78;5056322;28;20043;-71
2023/06/27 10:12:33;;;;;;;6.68;3.10;;;;;;;22.56;93.54;100521.78;5038245;28;20372;-71
2023/06/27 10:14:59;;;;;;;6.57;2.72;;;;;;;22.52;93.86;100516.84;5056237;28;20055;-71
2023/06/27 10:17:26;;;;;;;6.63;2.75;;;;;;;22.65;93.12;100522.78;5071630;28;20025;-71
2023/06/27 10:19:53;;;;;;;6.00;2.72;;;;;;;22.63;93.28;100516.78;5055758;28;20029;-71
2023/06/27 10:22:21;;;;;;;5.78;2.30;;;;;;;22.52;92.72;100525.09;5037553;28;20040;-71
2023/06/27 10:24:51;;;;;;;6.95;2.63;;;;;;;22.65;92.00;100498.09;5052517;28;20391;-71
2023/06/27 10:27:20;;;;;;;6.75;2.30;;;;;;;22.72;91.75;100504.91;5037305;28;20021;-71
2023/06/27 10:29:46;;;;;;;5.65;2.30;;;;;;;22.77;91.79;100509.50;5044663;28;20021;-71
2023/06/27 10:32:16;;;;;;;4.35;2.50;;;;;;;22.81;91.09;100505.09;5068330;28;20056;-71
2023/06/27 10:34:43;;;;;;;6.15;2.72;;;;;;;22.83;90.84;100511.09;5038889;28;20048;-71
2023/06/27 10:37:10;;;;;;;5.93;2.28;;;;;;;23.23;89.87;100511.84;5038242;28;20029;-71
2023/06/27 10:39:37;;;;;;;4.35;2.47;;;;;;;23.19;89.63;100508.88;5037828;28;20029;-70
2023/06/27 10:42:25;;;;;;;5.25;2.40;;;;;;;23.25;89.28;100498.66;5037866;28;20498;-70
2023/06/27 10:45:00;;;;;;;5.68;2.25;;;;;;;;;;5049703;28;20115;-70
2023/06/27 10:47:27;;;;;;;5.38;2.20;;;;;;;23.64;88.36;100505.88;5056545;28;20029;-71
2023/06/27 10:50:00;;;;;;;4.43;2.00;;;;;;;23.60;87.62;100505.66;5041325;28;20176;-71
2023/06/27 10:52:25;;;;;;;7.07;2.40;;;;;;;23.71;86.97;100500.06;5056389;28;20039;-70
2023/06/27 10:55:15;;;;;;;8.07;2.35;;;;;;;23.78;86.89;100520.59;5058315;28;20028;-71
2023/06/27 10:57:56;;;;;;;7.00;2.42;;;;;;;23.53;86.75;100513.44;5055719;28;20064;-71
2023/06/27 11:00:28;;;;;;;4.85;2.10;;;;;;;23.37;87.50;100515.53;5059211;28;20100;-71
2023/06/27 11:02:56;;;;;;;6.50;2.50;;;;;;;23.31;88.45;100524.13;5041130;28;20029;-71
2023/06/27 11:05:57;;;;;;;6.43;2.80;;;;;;;23.18;88.88;100526.47;5059894;28;20060;-71
2023/06/27 11:08:27;;;;;;;7.13;2.80;;;;;;;23.12;89.33;100533.09;5038127;28;20029;-71
2023/06/27 11:10:58;;;;;;;7.03;2.55;;;;;;;23.31;89.06;100535.94;5058908;28;20025;-71
2023/06/27 11:13:27;;;;;;;6.00;3.17;;;;;;;23.31;89.11;100535.94;5041757;28;20036;-71
2023/06/27 11:15:54;;;;;;;6.63;2.40;;;;;;;23.46;88.70;100537.69;5058933;28;20036;-71